Time;durP1;ratioP1;P1;durP2;ratioP2;P2;SDS_P1;SDS_P2;PMS_P1;PMS_P2;Temp;Humidity;BMP_temperature;BMP_pressure;BME280_temperature;BME280_humidity;BME280_pressure;Samples;Min_cycle;Max_cycle;Signal;HPM_P1;HPM_P2
2023/11/12 00:00:39;;;;;;;10.43;5.57;;;;;;;10.97;72.11;100624.78;5029147;28;20043;-50
2023/11/12 00:03:05;;;;;;;13.07;5.68;;;;;;;10.96;72.21;100617.81;5029556;28;20120;-45
2023/11/12 00:05:30;;;;;;;9.85;5.80;;;;;;;11.01;71.66;100623.94;5029269;28;20111;-47
2023/11/12 00:07:56;;;;;;;12.15;5.68;;;;;;;11.04;71.80;100626.53;5029128;28;20045;-46
2023/11/12 00:10:22;;;;;;;11.40;5.97;;;;;;;11.02;71.84;100624.81;5028316;28;20531;-46
2023/11/12 00:12:47;;;;;;;12.43;5.68;;;;;;;11.03;71.44;100622.22;5029224;28;20183;-43
2023/11/12 00:15:13;;;;;;;14.10;5.55;;;;;;;11.05;71.31;100627.44;5029747;28;20038;-45
2023/11/12 00:17:41;;;;;;;10.88;5.45;;;;;;;11.01;70.93;100623.06;5011243;28;20029;-48
2023/11/12 00:20:07;;;;;;;10.27;5.38;;;;;;;10.92;70.83;100624.72;5029166;28;20665;-44
2023/11/12 00:22:33;;;;;;;13.27;6.10;;;;;;;10.62;72.24;100628.81;5028398;28;20029;-48
2023/11/12 00:24:59;;;;;;;11.35;5.85;;;;;;;10.57;72.48;100623.56;5029199;28;20037;-46
2023/11/12 00:27:24;;;;;;;12.48;6.03;;;;;;;10.61;71.54;100627.06;5028487;28;20472;-45
2023/11/12 00:29:49;;;;;;;12.00;5.95;;;;;;;10.55;71.01;100633.94;5029710;28;20087;-48
2023/11/12 00:32:15;;;;;;;10.15;5.07;;;;;;;10.56;70.43;100621.78;5028571;28;20044;-48
2023/11/12 00:34:40;;;;;;;9.27;5.57;;;;;;;10.48;70.29;100624.34;5028479;28;20037;-48
2023/11/12 00:37:06;;;;;;;8.30;4.93;;;;;;;10.44;69.87;100621.69;5028762;28;20143;-50
2023/11/12 00:39:32;;;;;;;10.82;5.10;;;;;;;10.37;70.23;100619.91;5028914;28;20399;-46
2023/11/12 00:42:00;;;;;;;11.57;5.57;;;;;;;10.31;70.10;100614.59;5029296;28;20179;-50
2023/11/12 00:44:25;;;;;;;9.82;5.13;;;;;;;10.28;70.13;100619.78;5028659;28;20036;-45
2023/11/12 00:46:51;;;;;;;9.98;5.57;;;;;;;10.20;69.93;100606.69;5029062;28;20097;-45
2023/11/12 00:49:17;;;;;;;12.98;5.80;;;;;;;10.14;69.49;100619.59;5029220;28;20061;-48
2023/11/12 00:51:43;;;;;;;13.95;5.35;;;;;;;10.06;69.73;100622.09;5028963;28;20068;-45
2023/11/12 00:54:08;;;;;;;11.23;5.60;;;;;;;10.00;69.60;100622.03;5029094;28;20065;-47
2023/11/12 00:56:33;;;;;;;9.30;5.68;;;;;;;9.92;69.47;100615.88;5028940;28;20033;-46
2023/11/12 00:58:59;;;;;;;10.35;5.68;;;;;;;9.88;69.77;100616.69;5029731;28;20033;-47
2023/11/12 01:01:24;;;;;;;10.10;5.40;;;;;;;9.84;69.70;100612.31;5028962;28;20048;-50
2023/11/12 01:03:49;;;;;;;10.38;5.72;;;;;;;9.81;69.77;100612.28;5029682;28;20436;-46
2023/11/12 01:06:15;;;;;;;9.68;5.30;;;;;;;9.77;69.93;100616.56;5030464;28;20033;-45
2023/11/12 01:08:40;;;;;;;9.30;5.40;;;;;;;9.74;70.07;100615.66;5029619;28;20040;-44
2023/11/12 01:11:06;;;;;;;10.25;5.90;;;;;;;9.69;70.05;100612.13;5013343;28;20037;-45
2023/11/12 01:13:31;;;;;;;14.43;5.85;;;;;;;9.64;69.96;100616.38;5030701;28;20038;-46
2023/11/12 01:15:56;;;;;;;11.70;5.55;;;;;;;9.63;69.67;100612.06;5029103;28;20041;-45
2023/11/12 01:18:22;;;;;;;8.55;5.45;;;;;;;9.63;69.89;100617.25;5028451;28;20703;-45
2023/11/12 01:20:48;;;;;;;7.28;4.75;;;;;;;9.65;69.88;100605.13;5027923;28;20037;-46
2023/11/12 01:23:13;;;;;;;11.00;5.57;;;;;;;9.67;70.15;100606.03;5028368;28;20038;-50
2023/11/12 01:25:40;;;;;;;9.20;5.43;;;;;;;9.74;70.50;100613.94;5028040;28;20033;-47
2023/11/12 01:28:06;;;;;;;11.02;5.40;;;;;;;9.81;70.54;100611.41;5010357;28;20399;-45
2023/11/12 01:30:31;;;;;;;11.95;5.82;;;;;;;9.71;71.59;100606.06;5027611;28;20128;-46
2023/11/12 01:32:56;;;;;;;10.85;6.00;;;;;;;9.70;71.90;100596.50;5028210;28;20038;-46
2023/11/12 01:35:22;;;;;;;11.15;6.07;;;;;;;9.74;72.44;100600.03;5027937;28;20026;-46
2023/11/12 01:37:48;;;;;;;9.00;5.53;;;;;;;9.92;71.62;100602.88;5029388;28;20037;-50
2023/11/12 01:40:17;;;;;;;9.25;5.47;;;;;;;10.01;71.71;100602.97;5030665;28;20037;-45
2023/11/12 01:42:43;;;;;;;15.65;6.07;;;;;;;10.00;71.17;100601.19;5029792;28;20113;-46
2023/11/12 01:45:09;;;;;;;10.20;6.28;;;;;;;9.70;72.65;100611.25;5028812;28;20486;-48
2023/11/12 01:47:36;;;;;;;16.00;6.97;;;;;;;9.52;75.17;100609.28;5027904;28;20488;-45
2023/11/12 01:50:03;;;;;;;15.02;7.45;;;;;;;9.76;74.10;100609.59;5028354;28;20500;-46
2023/11/12 01:52:29;;;;;;;14.88;6.53;;;;;;;10.00;73.14;100610.78;5027613;28;20029;-45
2023/11/12 01:54:55;;;;;;;12.48;6.30;;;;;;;10.07;71.83;100602.16;5028530;28;20137;-47
2023/11/12 01:57:20;;;;;;;12.55;6.88;;;;;;;10.13;71.73;100608.31;5031126;28;20423;-49
2023/11/12 01:59:46;;;;;;;14.93;6.43;;;;;;;10.15;72.18;100598.78;5030563;28;20124;-47
2023/11/12 02:02:13;;;;;;;11.80;6.30;;;;;;;10.24;72.11;100603.25;5031593;28;20040;-47
2023/11/12 02:04:38;;;;;;;12.02;5.97;;;;;;;10.30;72.22;100603.31;5031487;28;20522;-44
2023/11/12 02:07:04;;;;;;;13.10;6.68;;;;;;;10.02;73.28;100612.53;5032099;28;20045;-45
2023/11/12 02:09:31;;;;;;;12.90;6.88;;;;;;;10.22;72.97;100619.72;5014148;28;20030;-45
2023/11/12 02:11:56;;;;;;;11.00;6.50;;;;;;;10.34;72.64;100610.31;5032408;28;20136;-45
2023/11/12 02:14:25;;;;;;;15.18;6.85;;;;;;;10.44;72.37;100613.88;5032494;28;20060;-44
2023/11/12 02:16:51;;;;;;;12.32;6.10;;;;;;;10.51;72.74;100608.72;5014299;28;20041;-45
2023/11/12 02:19:23;;;;;;;12.13;6.57;;;;;;;10.57;72.59;100610.50;5032172;28;20179;-45
2023/11/12 02:21:48;;;;;;;16.60;6.82;;;;;;;10.65;72.29;100606.25;5031087;28;20050;-43
2023/11/12 02:24:14;;;;;;;10.75;5.97;;;;;;;10.66;72.55;100605.41;5031380;28;20041;-44
2023/11/12 02:26:39;;;;;;;14.13;6.47;;;;;;;10.65;72.52;100608.00;5030785;28;20040;-44
2023/11/12 02:29:04;;;;;;;11.38;6.20;;;;;;;10.74;72.75;100605.44;5013356;28;20534;-46
2023/11/12 02:31:29;;;;;;;11.00;6.45;;;;;;;10.71;72.85;100602.81;5031285;28;20045;-45
2023/11/12 02:33:55;;;;;;;13.82;6.82;;;;;;;10.82;72.72;100607.25;5031448;28;20048;-46
2023/11/12 02:36:25;;;;;;;13.63;6.90;;;;;;;10.82;72.60;100609.88;5030975;28;20476;-46
2023/11/12 02:38:51;;;;;;;11.35;5.97;;;;;;;10.93;72.77;100602.13;5031230;28;20449;-45
2023/11/12 02:41:18;;;;;;;13.27;6.80;;;;;;;10.96;72.37;100600.44;5031052;28;20072;-48
2023/11/12 02:43:43;;;;;;;12.70;6.82;;;;;;;10.91;72.55;100596.03;5030640;28;20415;-47
2023/11/12 02:46:09;;;;;;;11.63;6.45;;;;;;;10.88;72.88;100599.50;5030821;28;20029;-46
2023/11/12 02:49:02;;;;;;;12.23;6.55;;;;;;;10.94;72.33;100598.66;5030269;28;20033;-44
2023/11/12 02:51:28;;;;;;;12.55;6.68;;;;;;;10.92;72.50;100597.75;5030861;28;20384;-44
2023/11/12 02:53:54;;;;;;;12.88;6.85;;;;;;;10.90;72.47;100592.56;5030169;28;20068;-47
2023/11/12 02:56:19;;;;;;;9.85;6.20;;;;;;;10.97;72.49;100598.69;5030752;28;20045;-45
2023/11/12 02:58:45;;;;;;;12.38;6.63;;;;;;;10.99;72.35;100594.34;5030318;28;20037;-44
2023/11/12 03:01:10;;;;;;;11.88;6.60;;;;;;;11.01;72.33;100591.75;5031319;28;20134;-45
2023/11/12 03:03:36;;;;;;;14.98;7.07;;;;;;;11.02;72.07;100599.59;5030459;28;20030;-48
2023/11/12 03:06:01;;;;;;;13.25;6.72;;;;;;;11.03;72.52;100601.34;5031814;28;20404;-45
2023/11/12 03:08:26;;;;;;;16.63;6.65;;;;;;;11.04;72.66;100595.25;5011864;28;20116;-49
2023/11/12 03:10:54;;;;;;;12.50;6.53;;;;;;;11.11;72.18;100594.44;5031186;28;20033;-50
2023/11/12 03:13:20;;;;;;;14.77;6.97;;;;;;;11.11;72.79;100602.25;5030909;28;20038;-46
2023/11/12 03:15:46;;;;;;;18.02;7.50;;;;;;;11.14;73.01;100609.25;5030934;28;20029;-47
2023/11/12 03:18:12;;;;;;;11.90;7.07;;;;;;;11.25;73.33;100600.63;5031509;28;20121;-46
2023/11/12 03:20:37;;;;;;;13.82;7.57;;;;;;;11.30;72.78;100596.28;5031182;28;20568;-45
2023/11/12 03:23:03;;;;;;;11.77;7.53;;;;;;;11.35;73.02;100593.69;5030898;28;20043;-47
2023/11/12 03:25:28;;;;;;;13.30;7.10;;;;;;;11.40;73.15;100592.03;5030594;28;20116;-46
2023/11/12 03:27:54;;;;;;;14.85;7.97;;;;;;;11.48;72.84;100589.44;5030638;28;20526;-47
2023/11/12 03:30:19;;;;;;;16.30;7.35;;;;;;;11.50;72.74;100582.47;5031330;28;20049;-45
2023/11/12 03:32:44;;;;;;;13.05;7.63;;;;;;;11.46;72.92;100579.00;5030203;28;20042;-44
2023/11/12 03:35:11;;;;;;;12.30;7.75;;;;;;;11.50;72.65;100583.34;5030555;28;20038;-45
2023/11/12 03:37:37;;;;;;;13.05;7.60;;;;;;;11.40;72.78;100585.03;5029402;28;20038;-46
2023/11/12 03:40:04;;;;;;;16.83;7.45;;;;;;;11.40;72.67;100577.19;5030696;28;20061;-46
2023/11/12 03:42:29;;;;;;;12.85;7.13;;;;;;;11.37;72.57;100578.94;5029317;28;20033;-47
2023/11/12 03:44:56;;;;;;;16.42;7.78;;;;;;;11.28;72.60;100574.53;5030240;28;20044;-45
2023/11/12 03:47:23;;;;;;;13.75;6.93;;;;;;;11.31;72.02;100579.78;5029894;28;20507;-45
2023/11/12 03:49:48;;;;;;;12.32;7.15;;;;;;;11.26;72.03;100576.28;5030074;28;20146;-45
2023/11/12 03:52:13;;;;;;;16.38;7.68;;;;;;;11.23;71.72;100578.84;5028228;28;22485;-45
2023/11/12 03:54:39;;;;;;;16.33;8.10;;;;;;;11.15;72.04;100579.69;5029467;28;20052;-45
2023/11/12 03:57:04;;;;;;;14.65;7.57;;;;;;;11.13;71.72;100579.66;5029708;28;20034;-44
2023/11/12 03:59:30;;;;;;;18.75;7.90;;;;;;;11.11;71.69;100578.78;5029438;28;20041;-49
2023/11/12 04:01:55;;;;;;;14.55;8.05;;;;;;;11.12;72.09;100574.44;5029893;28;20041;-46
2023/11/12 04:04:21;;;;;;;18.55;8.98;;;;;;;11.08;72.25;100580.50;5029713;28;20502;-45
2023/11/12 04:06:46;;;;;;;18.75;8.82;;;;;;;11.16;71.83;100576.22;5028816;28;20029;-45
2023/11/12 04:09:12;;;;;;;15.27;8.35;;;;;;;11.22;72.30;100584.09;5030091;28;20033;-45
2023/11/12 04:11:40;;;;;;;15.77;8.52;;;;;;;11.28;72.55;100589.34;5029859;28;20045;-45
2023/11/12 04:14:05;;;;;;;14.85;8.45;;;;;;;11.31;73.02;100582.38;5029592;28;20045;-45
2023/11/12 04:16:33;;;;;;;20.85;9.45;;;;;;;11.39;72.93;100574.59;5029362;28;20080;-51
2023/11/12 04:18:58;;;;;;;18.27;9.57;;;;;;;11.42;73.04;100576.34;5029854;28;20036;-46
2023/11/12 04:21:23;;;;;;;15.60;9.70;;;;;;;11.46;72.99;100579.00;5030504;28;20105;-46
2023/11/12 04:23:49;;;;;;;19.30;9.90;;;;;;;11.51;72.91;100581.63;5028477;28;20041;-44
2023/11/12 04:26:14;;;;;;;16.45;9.25;;;;;;;11.60;72.96;100584.25;5028625;28;20534;-44
2023/11/12 04:28:40;;;;;;;24.40;11.18;;;;;;;11.55;73.15;100580.75;5028090;28;20049;-44
2023/11/12 04:31:05;;;;;;;20.40;10.88;;;;;;;11.63;73.11;100579.06;5028340;28;20037;-44
2023/11/12 04:33:30;;;;;;;20.73;11.23;;;;;;;11.57;73.74;100582.53;5028127;28;20083;-48
2023/11/12 04:35:56;;;;;;;22.55;11.63;;;;;;;11.67;73.37;100580.81;5028858;28;20101;-48
2023/11/12 04:38:21;;;;;;;21.92;11.27;;;;;;;11.69;73.26;100579.97;5029062;28;20193;-44
2023/11/12 04:40:48;;;;;;;23.05;11.48;;;;;;;11.78;73.08;100582.63;5028258;28;20044;-43
2023/11/12 04:43:15;;;;;;;21.13;11.00;;;;;;;11.82;73.03;100580.06;5028511;28;20037;-45
2023/11/12 04:45:41;;;;;;;21.77;11.38;;;;;;;11.76;73.38;100583.50;5028541;28;20065;-44
2023/11/12 04:48:06;;;;;;;24.33;12.07;;;;;;;11.90;72.90;100581.81;5028722;28;20119;-46
2023/11/12 04:50:32;;;;;;;20.08;11.20;;;;;;;11.91;72.54;100582.69;5028861;28;20059;-44
2023/11/12 04:52:58;;;;;;;25.77;10.82;;;;;;;11.87;73.05;100583.56;5029132;28;20065;-44
2023/11/12 04:55:24;;;;;;;20.92;11.70;;;;;;;11.87;73.15;100592.25;5028694;28;20119;-46
2023/11/12 04:57:49;;;;;;;22.40;11.85;;;;;;;11.85;72.75;100591.38;5027659;28;20052;-45
2023/11/12 05:00:15;;;;;;;24.35;12.20;;;;;;;11.83;72.94;100595.75;5028748;28;20095;-45
2023/11/12 05:02:40;;;;;;;23.67;11.85;;;;;;;11.79;73.13;100596.56;5028098;28;20029;-44
2023/11/12 05:05:07;;;;;;;27.38;12.35;;;;;;;11.78;72.73;100593.09;5009668;28;20561;-44
2023/11/12 05:07:32;;;;;;;25.65;12.43;;;;;;;11.79;72.94;100600.06;5027751;28;20044;-45
2023/11/12 05:09:57;;;;;;;29.20;13.35;;;;;;;11.73;72.96;100604.34;5028523;28;20403;-46
2023/11/12 05:12:23;;;;;;;22.05;12.60;;;;;;;11.79;72.87;100593.97;5028026;28;20091;-43
2023/11/12 05:14:48;;;;;;;22.65;12.93;;;;;;;11.77;72.53;100607.00;5028029;28;20053;-45
2023/11/12 05:17:13;;;;;;;23.35;12.80;;;;;;;11.84;72.53;100605.28;5028610;28;20057;-45
2023/11/12 05:19:38;;;;;;;27.95;13.18;;;;;;;11.78;72.85;100598.31;5027897;28;20124;-43
2023/11/12 05:22:04;;;;;;;24.77;13.82;;;;;;;11.74;72.99;100593.06;5028435;28;20042;-44
2023/11/12 05:24:29;;;;;;;24.63;14.43;;;;;;;11.74;72.78;100603.53;5027749;28;20409;-43
2023/11/12 05:26:55;;;;;;;27.83;14.73;;;;;;;11.63;72.98;100605.19;5028351;28;20359;-48
2023/11/12 05:29:20;;;;;;;27.58;15.02;;;;;;;11.70;72.80;100605.22;5028317;28;20041;-49
2023/11/12 05:31:45;;;;;;;24.67;14.25;;;;;;;11.77;72.71;100606.16;5030218;28;20466;-44
2023/11/12 05:34:13;;;;;;;26.63;15.10;;;;;;;11.75;72.62;100613.09;5033673;28;20454;-44
2023/11/12 05:36:39;;;;;;;25.92;15.20;;;;;;;11.79;72.52;100613.13;5034416;28;20037;-44
2023/11/12 05:39:05;;;;;;;27.63;15.25;;;;;;;11.75;72.32;100611.38;5033242;28;20045;-44
2023/11/12 05:41:30;;;;;;;27.67;14.88;;;;;;;11.77;72.39;100614.00;5031237;28;20434;-44
2023/11/12 05:43:56;;;;;;;27.60;15.10;;;;;;;11.74;72.37;100617.44;5032220;28;20118;-44
2023/11/12 05:46:21;;;;;;;27.52;14.77;;;;;;;11.72;72.29;100613.91;5031856;28;20064;-45
2023/11/12 05:48:47;;;;;;;23.75;13.90;;;;;;;11.74;72.28;100614.84;5031370;28;20041;-47
2023/11/12 05:51:12;;;;;;;24.98;14.32;;;;;;;11.70;72.06;100620.03;5029833;28;20026;-43
2023/11/12 05:53:37;;;;;;;24.92;13.88;;;;;;;11.68;72.35;100611.28;5031152;28;20079;-47
2023/11/12 05:56:03;;;;;;;24.60;13.60;;;;;;;11.69;71.94;100608.69;5032021;28;20037;-47
2023/11/12 05:58:29;;;;;;;26.60;14.10;;;;;;;11.69;71.88;100613.91;5030962;28;20119;-45
2023/11/12 06:00:55;;;;;;;25.65;13.95;;;;;;;11.65;71.92;100622.59;5013989;28;20032;-44
2023/11/12 06:03:23;;;;;;;23.90;13.88;;;;;;;11.55;72.14;100620.81;5031917;28;20037;-46
2023/11/12 06:05:49;;;;;;;23.02;14.20;;;;;;;11.62;71.96;100626.94;5031118;28;20041;-46
2023/11/12 06:08:14;;;;;;;25.95;14.73;;;;;;;11.59;72.18;100625.16;5031097;28;20486;-45
2023/11/12 06:10:43;;;;;;;28.23;14.20;;;;;;;11.62;72.26;100626.94;5030748;28;20515;-45
2023/11/12 06:13:09;;;;;;;23.98;13.63;;;;;;;11.64;72.08;100625.22;5031366;28;20419;-44
2023/11/12 06:15:34;;;;;;;22.92;13.63;;;;;;;11.62;72.40;100627.81;5030636;28;20044;-45
2023/11/12 06:18:00;;;;;;;23.95;14.45;;;;;;;11.58;72.08;100628.66;5031562;28;20057;-45
2023/11/12 06:20:26;;;;;;;23.70;13.75;;;;;;;11.58;72.23;100633.88;5030639;28;20492;-45
2023/11/12 06:22:51;;;;;;;25.05;13.43;;;;;;;11.66;72.12;100631.28;5031285;28;20045;-46
2023/11/12 06:25:17;;;;;;;26.23;14.00;;;;;;;11.61;72.18;100631.28;5031261;28;20037;-46
2023/11/12 06:27:42;;;;;;;23.52;13.48;;;;;;;11.64;72.15;100626.09;5030641;28;20122;-44
2023/11/12 06:30:09;;;;;;;22.00;13.00;;;;;;;11.66;72.19;100628.69;5031212;28;20104;-44
2023/11/12 06:32:34;;;;;;;25.55;13.88;;;;;;;11.62;72.05;100629.53;5030423;28;20061;-44
2023/11/12 06:35:00;;;;;;;26.52;14.45;;;;;;;11.59;72.18;100635.59;5013134;28;20037;-46
2023/11/12 06:37:26;;;;;;;25.95;14.20;;;;;;;11.31;73.15;100637.19;5031482;28;20121;-47
2023/11/12 06:39:52;;;;;;;23.48;12.98;;;;;;;11.56;72.55;100637.34;5032363;28;20034;-44
2023/11/12 06:42:17;;;;;;;25.58;14.15;;;;;;;11.57;71.89;100636.47;5031553;28;20042;-46
2023/11/12 06:44:42;;;;;;;25.40;13.68;;;;;;;11.57;71.97;100636.47;5031020;28;20444;-44
2023/11/12 06:47:08;;;;;;;24.55;13.95;;;;;;;11.52;71.80;100632.97;5030538;28;20325;-45
2023/11/12 06:49:33;;;;;;;23.83;14.23;;;;;;;11.40;72.41;100634.63;5030470;28;20238;-44
2023/11/12 06:51:59;;;;;;;22.15;13.65;;;;;;;11.45;72.13;100629.47;5031050;28;20033;-44
2023/11/12 06:54:27;;;;;;;24.98;13.90;;;;;;;11.51;72.15;100631.22;5029806;28;20050;-43
2023/11/12 06:56:56;;;;;;;24.67;13.70;;;;;;;11.54;71.95;100632.09;5029990;28;20044;-44
2023/11/12 06:59:21;;;;;;;26.00;13.63;;;;;;;11.56;72.10;100635.59;5030835;28;20461;-45
2023/11/12 07:01:47;;;;;;;23.95;13.65;;;;;;;11.59;71.81;100648.66;5030106;28;20052;-44
2023/11/12 07:04:12;;;;;;;26.67;14.77;;;;;;;11.57;72.09;100646.94;5030962;28;20033;-47
2023/11/12 07:06:41;;;;;;;25.02;14.45;;;;;;;11.58;71.83;100641.72;5029807;28;20034;-43
2023/11/12 07:09:07;;;;;;;23.15;14.45;;;;;;;11.60;72.01;100645.19;5013593;28;20038;-44
2023/11/12 07:11:33;;;;;;;23.98;13.65;;;;;;;11.67;72.08;100640.88;5030761;28;20117;-46
2023/11/12 07:13:58;;;;;;;23.85;14.70;;;;;;;11.66;71.82;100649.56;5030275;28;20061;-47
2023/11/12 07:16:24;;;;;;;25.90;14.13;;;;;;;11.67;71.51;100644.38;5030863;28;20080;-45
2023/11/12 07:18:50;;;;;;;25.27;14.25;;;;;;;11.64;71.59;100648.72;5031249;28;20040;-46
2023/11/12 07:21:30;;;;;;;21.50;13.82;;;;;;;11.66;71.96;100655.66;5031755;28;20041;-45
2023/11/12 07:23:56;;;;;;;22.35;14.30;;;;;;;11.64;71.53;100656.53;5031639;28;20168;-47
2023/11/12 07:26:23;;;;;;;20.40;13.32;;;;;;;11.70;71.96;100665.28;5030623;28;20124;-46
2023/11/12 07:28:48;;;;;;;22.77;13.95;;;;;;;11.68;71.60;100666.13;5031122;28;20103;-47
2023/11/12 07:31:14;;;;;;;24.70;13.23;;;;;;;11.77;71.87;100669.69;5030420;28;20454;-47
2023/11/12 07:33:39;;;;;;;22.63;13.68;;;;;;;11.83;71.71;100662.78;5029445;28;20681;-47
2023/11/12 07:36:06;;;;;;;22.20;13.77;;;;;;;11.91;71.49;100659.31;5029698;28;20037;-46
2023/11/12 07:38:31;;;;;;;22.15;13.32;;;;;;;11.91;71.42;100664.53;5029164;28;20049;-45
2023/11/12 07:40:56;;;;;;;21.98;13.18;;;;;;;11.89;71.49;100658.47;5029419;28;20041;-47
2023/11/12 07:43:22;;;;;;;22.92;13.23;;;;;;;11.89;71.52;100660.19;5029882;28;20045;-46
2023/11/12 07:45:47;;;;;;;21.83;13.05;;;;;;;11.84;71.24;100667.97;5029195;28;20033;-43
2023/11/12 07:48:12;;;;;;;24.30;11.80;;;;;;;11.87;71.13;100665.41;5029168;28;20046;-48
2023/11/12 07:50:38;;;;;;;20.55;12.88;;;;;;;11.72;71.15;100673.09;5028791;28;20039;-44
2023/11/12 07:53:03;;;;;;;21.55;12.93;;;;;;;11.70;71.03;100680.97;5028979;28;20408;-45
2023/11/12 07:55:29;;;;;;;24.17;13.27;;;;;;;11.68;71.01;100685.28;5028449;28;20037;-45
2023/11/12 07:57:55;;;;;;;22.05;12.70;;;;;;;11.57;70.90;100686.09;5029859;28;20038;-45
2023/11/12 08:00:22;;;;;;;20.33;12.77;;;;;;;11.64;71.24;100680.91;5030672;28;20571;-48
2023/11/12 08:02:47;;;;;;;21.48;13.10;;;;;;;11.67;71.06;100678.31;5029967;28;20033;-45
2023/11/12 08:05:13;;;;;;;22.75;13.05;;;;;;;11.66;70.96;100686.13;5030262;28;20044;-44
2023/11/12 08:07:38;;;;;;;24.23;13.43;;;;;;;11.64;71.22;100678.31;5029779;28;20080;-45
2023/11/12 08:10:05;;;;;;;22.83;13.15;;;;;;;11.74;71.23;100685.34;5030585;28;20049;-44
2023/11/12 08:12:30;;;;;;;22.50;13.15;;;;;;;11.88;71.47;100692.41;5029730;28;20470;-46
2023/11/12 08:14:56;;;;;;;24.65;13.50;;;;;;;11.95;71.54;100689.84;5030405;28;20049;-46
2023/11/12 08:17:21;;;;;;;26.13;13.82;;;;;;;12.05;71.93;100685.50;5030258;28;20034;-46
2023/11/12 08:19:46;;;;;;;27.33;14.75;;;;;;;12.11;71.56;100680.31;5029596;28;20040;-46
2023/11/12 08:22:12;;;;;;;24.88;15.00;;;;;;;12.25;71.65;100686.47;5030089;28;20124;-46
2023/11/12 08:24:37;;;;;;;24.70;15.02;;;;;;;12.42;71.94;100683.91;5029519;28;20477;-44
2023/11/12 08:27:04;;;;;;;26.63;15.43;;;;;;;12.62;71.73;100674.38;5030070;28;20044;-45
2023/11/12 08:29:31;;;;;;;29.42;16.00;;;;;;;12.69;71.16;100680.47;5029523;28;20045;-46
2023/11/12 08:31:57;;;;;;;27.00;15.70;;;;;;;12.66;70.58;100676.09;5030241;28;20090;-46
2023/11/12 08:34:23;;;;;;;25.75;15.00;;;;;;;12.85;70.19;100682.25;5012104;28;20366;-44
2023/11/12 08:36:49;;;;;;;29.65;16.55;;;;;;;12.90;70.10;100683.13;5029303;28;20053;-45
2023/11/12 08:39:16;;;;;;;26.88;16.08;;;;;;;12.87;69.65;100686.59;5029935;28;20408;-44
2023/11/12 08:41:45;;;;;;;27.20;16.65;;;;;;;12.94;69.55;100688.34;5011767;28;20034;-44
2023/11/12 08:44:11;;;;;;;29.58;16.38;;;;;;;12.95;68.84;100692.72;5011905;28;20124;-47
2023/11/12 08:46:36;;;;;;;31.52;16.30;;;;;;;12.96;68.42;100694.47;5029162;28;20037;-44
2023/11/12 08:49:04;;;;;;;30.45;16.23;;;;;;;12.91;68.11;100687.47;5028407;28;20033;-45
2023/11/12 08:51:30;;;;;;;27.30;16.17;;;;;;;13.02;68.31;100693.59;5029157;28;20025;-45
2023/11/12 08:53:55;;;;;;;29.10;16.15;;;;;;;13.13;67.92;100688.38;5030213;28;20041;-46
2023/11/12 08:56:20;;;;;;;28.45;16.30;;;;;;;12.97;67.37;100695.34;5029493;28;20038;-46
2023/11/12 08:58:46;;;;;;;31.65;15.98;;;;;;;13.08;67.74;100701.44;5029648;28;20033;-46
2023/11/12 09:01:12;;;;;;;30.90;16.80;;;;;;;13.05;67.98;100703.19;5029799;28;20033;-44
2023/11/12 09:03:38;;;;;;;27.33;16.40;;;;;;;13.14;67.72;100704.09;5029911;28;20038;-45
2023/11/12 09:06:05;;;;;;;25.52;15.73;;;;;;;13.07;67.39;100701.44;5032448;28;20041;-50
2023/11/12 09:08:30;;;;;;;27.23;16.33;;;;;;;13.22;67.31;100702.38;5033760;28;20025;-46
2023/11/12 09:10:55;;;;;;;28.48;16.05;;;;;;;13.12;66.63;100708.44;5033903;28;20045;-44
2023/11/12 09:13:21;;;;;;;26.40;15.93;;;;;;;13.00;66.65;100711.03;5033975;28;20119;-43
2023/11/12 09:15:47;;;;;;;26.77;16.05;;;;;;;12.81;66.90;100710.13;5033461;28;20519;-45
2023/11/12 09:18:12;;;;;;;28.33;16.08;;;;;;;12.95;67.00;100713.66;5034045;28;20088;-44
2023/11/12 09:20:37;;;;;;;25.50;15.38;;;;;;;12.99;66.73;100718.00;5033724;28;20264;-46
2023/11/12 09:23:03;;;;;;;27.23;15.23;;;;;;;12.88;66.61;100709.28;5034467;28;20041;-46
2023/11/12 09:25:28;;;;;;;25.08;15.13;;;;;;;12.78;66.82;100706.66;5033700;28;20087;-46
2023/11/12 09:27:55;;;;;;;32.25;16.42;;;;;;;12.61;67.71;100714.47;5033128;28;20052;-43
2023/11/12 09:30:21;;;;;;;27.10;15.73;;;;;;;12.83;67.58;100723.22;5032333;28;20079;-47
2023/11/12 09:32:47;;;;;;;37.30;21.50;;;;;;;12.75;67.59;100715.34;5032873;28;20041;-47
2023/11/12 09:35:14;;;;;;;28.70;16.20;;;;;;;13.05;67.62;100724.13;5033697;28;20060;-43
2023/11/12 09:37:40;;;;;;;32.38;15.88;;;;;;;12.86;67.88;100715.38;5033061;28;20029;-47
2023/11/12 09:40:10;;;;;;;30.02;15.27;;;;;;;13.14;67.52;100722.41;5015389;28;20194;-48
2023/11/12 09:42:38;;;;;;;22.90;13.52;;;;;;;13.26;66.88;100729.41;5032675;28;20587;-46
2023/11/12 09:45:05;;;;;;;26.63;15.20;;;;;;;13.21;66.30;100728.53;5033302;28;20037;-48
2023/11/12 09:47:40;;;;;;;24.90;13.93;;;;;;;13.31;65.92;100730.25;5032550;28;20376;-44
2023/11/12 09:50:07;;;;;;;27.50;13.88;;;;;;;13.44;65.84;100729.41;5033595;28;20071;-45
2023/11/12 09:52:33;;;;;;;27.00;12.95;;;;;;;13.18;64.65;100732.00;5033021;28;20096;-44
2023/11/12 09:55:00;;;;;;;23.35;12.23;;;;;;;13.35;65.04;100721.56;5032803;28;20033;-46
2023/11/12 09:57:26;;;;;;;25.50;12.40;;;;;;;13.42;64.71;100735.53;5032764;28;20044;-45
2023/11/12 09:59:52;;;;;;;20.45;12.20;;;;;;;13.38;64.13;100730.28;5033689;28;20034;-46
2023/11/12 10:02:19;;;;;;;21.20;12.10;;;;;;;13.57;63.98;100731.13;5031848;28;20073;-44
2023/11/12 10:04:56;;;;;;;22.50;12.05;;;;;;;13.73;64.27;100739.84;5032080;28;20034;-48
2023/11/12 10:07:21;;;;;;;21.80;12.30;;;;;;;13.49;63.71;100740.72;5015557;28;20123;-48
2023/11/12 10:09:46;;;;;;;23.63;12.15;;;;;;;13.81;64.13;100735.47;5032186;28;20084;-48
2023/11/12 10:12:13;;;;;;;21.17;12.35;;;;;;;13.92;63.86;100740.66;5032961;28;20056;-44
2023/11/12 10:14:38;;;;;;;22.45;12.50;;;;;;;14.02;63.82;100732.81;5032619;28;20427;-49
2023/11/12 10:17:07;;;;;;;21.23;11.23;;;;;;;13.96;62.24;100740.69;5032718;28;20033;-46
2023/11/12 10:19:37;;;;;;;20.38;11.95;;;;;;;14.21;62.58;100738.81;5034665;28;20041;-44
2023/11/12 10:22:03;;;;;;;20.95;11.23;;;;;;;14.20;61.78;100737.97;5036572;28;20037;-43
2023/11/12 10:24:30;;;;;;;16.55;10.68;;;;;;;14.45;61.94;100738.78;5034913;28;20189;-42
2023/11/12 10:27:00;;;;;;;18.17;10.57;;;;;;;14.17;60.84;100739.72;5033344;28;20565;-46
2023/11/12 10:29:27;;;;;;;18.77;10.85;;;;;;;13.97;61.54;100742.41;5033522;28;20072;-44
2023/11/12 10:31:52;;;;;;;17.10;10.43;;;;;;;13.62;62.79;100745.09;5033178;28;20033;-47
2023/11/12 10:34:18;;;;;;;17.75;10.85;;;;;;;13.55;63.25;100737.22;5031991;28;20048;-49
2023/11/12 10:37:14;;;;;;;18.85;11.00;;;;;;;13.73;62.64;100747.69;5031872;28;20436;-46
2023/11/12 10:39:41;;;;;;;18.20;11.27;;;;;;;13.59;62.98;100741.63;5031768;28;20133;-45
2023/11/12 10:42:20;;;;;;;19.50;10.45;;;;;;;13.44;63.90;100747.72;5031997;28;20041;-45
2023/11/12 10:44:49;;;;;;;21.75;10.82;;;;;;;13.61;64.07;100747.72;5031591;28;20037;-45
2023/11/12 10:47:16;;;;;;;17.98;10.45;;;;;;;13.82;63.54;100748.56;5031596;28;20124;-45
2023/11/12 10:49:44;;;;;;;18.85;10.02;;;;;;;13.87;62.94;100740.69;5031501;28;20033;-45
2023/11/12 10:52:10;;;;;;;17.98;10.93;;;;;;;14.02;63.17;100743.28;5032062;28;20457;-45
2023/11/12 10:54:36;;;;;;;16.83;10.07;;;;;;;14.26;62.80;100746.69;5031154;28;20057;-42
2023/11/12 10:57:02;;;;;;;19.77;9.35;;;;;;;13.78;62.43;100746.81;5032164;28;20040;-46
2023/11/12 10:59:29;;;;;;;17.15;9.68;;;;;;;14.20;61.65;100750.22;5031508;28;20030;-44
2023/11/12 11:01:58;;;;;;;15.82;9.05;;;;;;;14.47;60.80;100747.50;5031901;28;20042;-44
2023/11/12 11:04:26;;;;;;;16.63;9.43;;;;;;;14.49;60.13;100739.63;5033150;28;20112;-45
2023/11/12 11:06:51;;;;;;;18.27;10.05;;;;;;;14.17;60.74;100751.09;5031914;28;20128;-44
2023/11/12 11:09:18;;;;;;;17.52;9.77;;;;;;;13.88;61.30;100763.41;5032983;28;20057;-44